Time;durP1;ratioP1;P1;durP2;ratioP2;P2;SDS_P1;SDS_P2;PMS_P1;PMS_P2;Temp;Humidity;BMP_temperature;BMP_pressure;BME280_temperature;BME280_humidity;BME280_pressure;Samples;Min_cycle;Max_cycle;Signal;HPM_P1;HPM_P2
2021/10/11 00:01:51;;;;;;;20.30;11.88;;;;;;;0.50;100.00;95995.06;4996036;28;20030;-56
2021/10/11 00:04:16;;;;;;;18.50;11.23;;;;;;;0.38;100.00;96004.41;4995997;28;20078;-57
2021/10/11 00:06:41;;;;;;;19.95;11.70;;;;;;;0.27;100.00;96004.84;5009923;28;20566;-54
2021/10/11 00:09:07;;;;;;;20.48;12.10;;;;;;;0.22;100.00;96010.66;5001098;28;20476;-56
2021/10/11 00:11:32;;;;;;;20.50;10.95;;;;;;;0.18;100.00;96004.09;5017343;28;20028;-56
2021/10/11 00:14:01;;;;;;;19.20;11.43;;;;;;;0.08;100.00;96011.41;5034951;28;20052;-55
2021/10/11 00:16:26;;;;;;;18.63;11.00;;;;;;;0.00;100.00;96014.13;5035118;28;20393;-53
2021/10/11 00:18:55;;;;;;;17.08;10.52;;;;;;;-0.04;100.00;96018.91;5034923;28;20021;-54
2021/10/11 00:21:26;;;;;;;19.35;10.95;;;;;;;-0.11;100.00;96017.16;5035026;28;20033;-50
2021/10/11 00:23:52;;;;;;;17.77;11.05;;;;;;;-0.10;100.00;96034.63;4999794;28;20039;-55
2021/10/11 00:26:23;;;;;;;19.88;10.38;;;;;;;-0.10;100.00;96024.09;5015152;28;20421;-53
2021/10/11 00:28:48;;;;;;;16.48;10.30;;;;;;;-0.11;100.00;96027.69;5012471;28;20100;-54
2021/10/11 00:31:14;;;;;;;23.23;11.52;;;;;;;-0.11;100.00;96020.63;5034849;28;20064;-57
2021/10/11 00:33:39;;;;;;;19.02;10.50;;;;;;;-0.11;100.00;96010.09;4998535;28;20030;-53
2021/10/11 00:36:08;;;;;;;18.48;11.40;;;;;;;-0.12;100.00;96010.25;5005266;28;20021;-53
2021/10/11 00:38:36;;;;;;;18.00;11.00;;;;;;;-0.10;100.00;96009.09;5034819;28;20108;-54
2021/10/11 00:41:02;;;;;;;18.88;10.93;;;;;;;-0.10;100.00;96003.03;5034703;28;20361;-55
2021/10/11 00:43:27;;;;;;;18.75;11.02;;;;;;;-0.08;100.00;96009.75;5033872;28;20093;-57
2021/10/11 00:45:56;;;;;;;21.35;11.80;;;;;;;0.01;100.00;95996.53;5034457;28;20032;-58
2021/10/11 00:48:21;;;;;;;19.92;11.25;;;;;;;0.07;100.00;95990.53;5016755;28;20121;-56
2021/10/11 00:50:47;;;;;;;18.88;11.30;;;;;;;0.08;100.00;95985.09;5034471;28;20112;-56
2021/10/11 00:53:13;;;;;;;20.52;11.30;;;;;;;0.07;100.00;95995.78;5034354;28;20022;-58
2021/10/11 00:55:38;;;;;;;21.63;11.70;;;;;;;-0.02;100.00;95992.41;5000278;28;20080;-58
2021/10/11 00:58:04;;;;;;;20.42;12.05;;;;;;;-0.05;100.00;95990.94;5032654;28;20087;-57
2021/10/11 01:00:29;;;;;;;20.90;11.75;;;;;;;-0.08;100.00;95991.31;4996966;28;20476;-53
2021/10/11 01:02:57;;;;;;;23.23;12.48;;;;;;;0.08;100.00;95984.25;5011952;28;20017;-56
2021/10/11 01:05:28;;;;;;;21.92;12.85;;;;;;;0.25;100.00;95989.22;5033999;28;20029;-54
2021/10/11 01:07:53;;;;;;;24.15;13.48;;;;;;;0.29;100.00;95969.41;5034065;28;20026;-54
2021/10/11 01:10:25;;;;;;;23.83;13.30;;;;;;;0.37;100.00;95970.34;5025928;28;20156;-52
2021/10/11 01:12:53;;;;;;;23.20;12.70;;;;;;;0.45;100.00;95950.00;5016284;28;20037;-53
2021/10/11 01:15:18;;;;;;;24.08;13.63;;;;;;;0.50;100.00;95950.25;5033966;28;20021;-54
2021/10/11 01:17:44;;;;;;;26.30;13.65;;;;;;;0.58;100.00;95937.00;5033923;28;20033;-55
2021/10/11 01:20:10;;;;;;;22.20;13.48;;;;;;;0.69;100.00;95932.28;5016074;28;20068;-58
2021/10/11 01:22:40;;;;;;;21.05;12.27;;;;;;;0.86;100.00;95929.25;5016444;28;20376;-54
2021/10/11 01:25:08;;;;;;;23.40;12.57;;;;;;;0.92;100.00;95930.34;5008367;28;20065;-57
2021/10/11 01:27:34;;;;;;;20.63;12.90;;;;;;;1.10;100.00;95927.31;4996417;28;20021;-57
2021/10/11 01:29:59;;;;;;;24.73;13.75;;;;;;;1.16;100.00;95926.56;5003475;28;20072;-55
2021/10/11 01:32:25;;;;;;;22.33;13.00;;;;;;;1.12;100.00;95926.13;5015940;28;20033;-55
2021/10/11 01:34:51;;;;;;;22.15;13.02;;;;;;;1.10;100.00;95938.69;5015908;28;20062;-52
2021/10/11 01:37:19;;;;;;;22.83;12.93;;;;;;;1.07;100.00;95930.31;4999817;28;20025;-59
2021/10/11 01:39:45;;;;;;;21.88;13.45;;;;;;;1.14;100.00;95918.03;5033587;28;20029;-55
2021/10/11 01:42:10;;;;;;;20.95;12.63;;;;;;;1.21;100.00;95918.94;5033434;28;20060;-53
2021/10/11 01:44:36;;;;;;;22.55;13.25;;;;;;;1.30;100.00;95919.59;5033530;28;20021;-54
2021/10/11 01:47:02;;;;;;;21.63;12.80;;;;;;;1.31;100.00;95916.00;5015578;28;20060;-54
2021/10/11 01:49:31;;;;;;;23.65;13.25;;;;;;;1.29;100.00;95910.06;5033192;28;20635;-52
2021/10/11 01:51:59;;;;;;;21.25;12.35;;;;;;;1.26;100.00;95905.97;5015204;28;20120;-54
2021/10/11 01:54:26;;;;;;;26.50;13.85;;;;;;;1.24;100.00;95901.91;5032698;28;20104;-53
2021/10/11 01:56:55;;;;;;;22.63;13.35;;;;;;;1.23;100.00;95900.25;5014930;28;20029;-54
2021/10/11 01:59:23;;;;;;;22.98;12.52;;;;;;;1.21;100.00;95899.63;5033191;28;20041;-55
2021/10/11 02:01:49;;;;;;;28.08;13.88;;;;;;;1.18;100.00;95898.16;5015499;28;20037;-54
2021/10/11 02:04:21;;;;;;;22.65;13.00;;;;;;;1.10;100.00;95906.22;5033059;28;20480;-53
2021/10/11 02:06:47;;;;;;;20.52;12.57;;;;;;;1.05;100.00;95908.56;5032804;28;20527;-58
2021/10/11 02:09:19;;;;;;;23.20;13.23;;;;;;;1.01;100.00;95918.69;5032869;28;20033;-53
2021/10/11 02:11:51;;;;;;;21.85;12.73;;;;;;;1.02;100.00;95922.16;5032919;28;20029;-54
2021/10/11 02:14:24;;;;;;;21.42;11.63;;;;;;;1.05;100.00;95913.84;5033000;28;20053;-55
2021/10/11 02:16:52;;;;;;;18.55;12.15;;;;;;;1.11;100.00;95913.94;5032820;28;20026;-53
2021/10/11 02:19:27;;;;;;;22.02;12.52;;;;;;;1.15;100.00;95903.81;5015567;28;20022;-57
2021/10/11 02:21:52;;;;;;;31.38;11.88;;;;;;;1.16;100.00;95895.72;5015030;28;20025;-57
2021/10/11 02:24:21;;;;;;;23.92;12.52;;;;;;;1.20;100.00;95890.91;5013925;28;20395;-57
2021/10/11 02:26:46;;;;;;;19.10;11.85;;;;;;;1.27;100.00;95881.22;4995158;28;20025;-55
2021/10/11 02:29:11;;;;;;;28.15;12.77;;;;;;;1.37;100.00;95876.44;5012893;28;20028;-55
2021/10/11 02:31:39;;;;;;;29.98;11.75;;;;;;;1.43;100.00;95874.91;5013335;28;20572;-56
2021/10/11 02:34:04;;;;;;;23.00;12.75;;;;;;;1.50;100.00;95869.66;5015290;28;20026;-56
2021/10/11 02:36:30;;;;;;;40.38;12.73;;;;;;;-144.43;100.00;64487.81;5032480;28;20395;-58
2021/10/11 02:39:04;;;;;;;52.92;14.60;;;;;;;-144.43;100.00;64487.81;5032585;28;20030;-54
2021/10/11 02:41:32;;;;;;;41.70;14.07;;;;;;;1.85;100.00;95852.09;5032418;28;20029;-55
2021/10/11 02:43:57;;;;;;;53.47;14.82;;;;;;;1.98;100.00;95854.84;5014801;28;20448;-54
2021/10/11 02:46:30;;;;;;;53.25;15.38;;;;;;;2.06;100.00;95845.94;5032290;28;20052;-56
2021/10/11 02:48:55;;;;;;;54.88;15.68;;;;;;;2.10;100.00;95845.38;5032203;28;20025;-52
2021/10/11 02:51:30;;;;;;;44.33;15.00;;;;;;;2.15;100.00;95842.13;5014742;28;20100;-58
2021/10/11 02:53:55;;;;;;;45.13;15.30;;;;;;;2.18;100.00;95847.06;5032196;28;20053;-57
2021/10/11 02:56:27;;;;;;;70.07;15.60;;;;;;;2.27;100.00;95845.84;5014700;28;20060;-57
2021/10/11 02:59:00;;;;;;;65.32;17.20;;;;;;;2.31;100.00;95847.94;4982070;28;20037;-55
2021/10/11 03:01:25;;;;;;;53.88;16.55;;;;;;;2.31;100.00;95841.84;5032641;28;20076;-55
2021/10/11 03:03:50;;;;;;;68.68;16.20;;;;;;;2.33;100.00;95834.53;5032258;28;20025;-55
2021/10/11 03:06:16;;;;;;;57.90;16.52;;;;;;;2.35;100.00;95832.50;5014877;28;20132;-52
2021/10/11 03:08:52;;;;;;;46.85;16.17;;;;;;;2.38;100.00;95829.44;5036223;28;20068;-55
2021/10/11 03:11:26;;;;;;;53.70;16.48;;;;;;;2.38;100.00;95831.28;5036302;28;20041;-55
2021/10/11 03:13:52;;;;;;;56.47;16.13;;;;;;;2.37;100.00;95825.19;5036183;28;20025;-56
2021/10/11 03:16:20;;;;;;;40.50;16.30;;;;;;;2.36;100.00;95820.09;5018382;28;20051;-53
2021/10/11 03:18:48;;;;;;;43.88;16.27;;;;;;;2.32;100.00;95814.38;5036089;28;20052;-52
2021/10/11 03:21:18;;;;;;;34.17;14.45;;;;;;;2.29;100.00;95814.78;5002032;28;20029;-52
2021/10/11 03:23:48;;;;;;;37.13;15.13;;;;;;;2.25;100.00;95810.88;5018816;28;20083;-55
2021/10/11 03:26:13;;;;;;;37.20;13.90;;;;;;;2.19;100.00;95804.56;5019084;28;20040;-56
2021/10/11 03:28:39;;;;;;;31.80;13.40;;;;;;;2.11;100.00;95804.72;5016251;28;20026;-57
2021/10/11 03:31:04;;;;;;;25.23;13.63;;;;;;;2.06;100.00;95807.09;5016122;28;20026;-54
2021/10/11 03:33:30;;;;;;;31.30;14.77;;;;;;;2.02;100.00;95811.16;5016123;28;20036;-57
2021/10/11 03:35:55;;;;;;;33.63;13.55;;;;;;;1.98;100.00;95810.75;4995953;28;20052;-54
2021/10/11 03:38:20;;;;;;;34.22;13.45;;;;;;;1.97;100.00;95808.28;5018162;28;20029;-52
2021/10/11 03:40:46;;;;;;;41.38;14.02;;;;;;;1.93;100.00;95807.03;5035704;28;20373;-55
2021/10/11 03:43:14;;;;;;;37.65;13.57;;;;;;;1.88;100.00;95812.09;5018158;28;20029;-51
2021/10/11 03:45:39;;;;;;;22.75;12.70;;;;;;;1.83;100.00;95817.94;5035604;28;20484;-55
2021/10/11 03:48:08;;;;;;;21.50;12.50;;;;;;;1.80;100.00;95828.06;5035533;28;20032;-51
2021/10/11 03:50:36;;;;;;;55.45;12.68;;;;;;;1.72;100.00;95814.00;5035568;28;20044;-53
2021/10/11 03:53:02;;;;;;;19.70;11.48;;;;;;;1.66;100.00;95820.06;5017788;28;20538;-53
2021/10/11 03:55:36;;;;;;;18.83;11.90;;;;;;;1.57;100.00;95829.13;5017524;28;20041;-56
2021/10/11 03:58:01;;;;;;;18.42;11.95;;;;;;;1.48;100.00;95832.06;5035515;28;20128;-54
2021/10/11 04:00:27;;;;;;;24.67;11.80;;;;;;;1.44;100.00;95837.75;5035345;28;20097;-55
2021/10/11 04:02:52;;;;;;;34.20;12.85;;;;;;;1.46;100.00;95850.75;5001455;28;20120;-56
2021/10/11 04:05:18;;;;;;;43.10;11.90;;;;;;;1.52;100.00;95846.53;5034927;28;20473;-50
2021/10/11 04:07:45;;;;;;;38.13;11.52;;;;;;;1.56;100.00;95853.06;5035293;28;20025;-53
2021/10/11 04:10:12;;;;;;;24.38;12.15;;;;;;;1.56;100.00;95847.78;5017302;28;20033;-54
2021/10/11 04:12:38;;;;;;;39.28;11.32;;;;;;;1.54;100.00;95855.91;5017740;28;20507;-57
2021/10/11 04:15:12;;;;;;;28.05;11.68;;;;;;;1.48;100.00;95851.38;5017247;28;20026;-56
2021/10/11 04:17:48;;;;;;;72.57;11.35;;;;;;;1.41;100.00;95853.13;5034377;28;20108;-58
2021/10/11 04:20:16;;;;;;;20.98;10.45;;;;;;;1.38;100.00;95856.97;5034747;28;20025;-59
2021/10/11 04:22:45;;;;;;;40.00;10.18;;;;;;;1.36;100.00;95858.16;5000836;28;20504;-53
2021/10/11 04:25:19;;;;;;;30.17;10.88;;;;;;;1.30;100.00;95870.31;5008856;28;20030;-58
2021/10/11 04:27:50;;;;;;;40.42;11.57;;;;;;;1.31;100.00;95877.22;5014953;28;20036;-58
2021/10/11 04:30:15;;;;;;;52.05;11.77;;;;;;;1.34;100.00;95887.38;5015124;28;20424;-56
2021/10/11 04:32:43;;;;;;;40.88;11.15;;;;;;;1.33;100.00;95880.47;4994475;28;20048;-55
2021/10/11 04:35:13;;;;;;;28.08;10.80;;;;;;;1.29;100.00;95876.56;5016938;28;20028;-58
2021/10/11 04:37:40;;;;;;;44.65;10.85;;;;;;;1.29;100.00;95881.84;5034684;28;20026;-59
2021/10/11 04:40:06;;;;;;;35.45;10.52;;;;;;;1.25;100.00;95875.31;5034813;28;20469;-59
2021/10/11 04:42:34;;;;;;;29.40;9.75;;;;;;;1.21;100.00;95862.69;5034456;28;20025;-57
2021/10/11 04:45:03;;;;;;;48.67;11.02;;;;;;;1.21;100.00;95870.63;5016868;28;20057;-58
2021/10/11 04:47:28;;;;;;;43.78;10.60;;;;;;;1.18;100.00;95877.06;5034487;28;20048;-58
2021/10/11 04:49:54;;;;;;;30.27;9.93;;;;;;;1.18;100.00;95871.78;5034519;28;20025;-58
2021/10/11 04:52:19;;;;;;;34.80;10.32;;;;;;;1.19;100.00;95877.88;5016835;28;20025;-56
2021/10/11 04:54:50;;;;;;;25.10;9.52;;;;;;;1.21;100.00;95879.34;5034129;28;20021;-55
2021/10/11 04:57:23;;;;;;;27.98;10.57;;;;;;;1.20;100.00;95883.00;5034406;28;20045;-54
2021/10/11 04:59:48;;;;;;;23.52;9.70;;;;;;;1.17;100.00;95889.44;5001353;28;20014;-56
2021/10/11 05:02:14;;;;;;;16.42;10.18;;;;;;;1.14;100.00;95892.44;5032987;28;20527;-56
2021/10/11 05:04:39;;;;;;;19.38;9.27;;;;;;;1.08;100.00;95898.47;5034237;28;20029;-56
2021/10/11 05:07:07;;;;;;;18.08;8.98;;;;;;;1.05;100.00;95892.75;5033987;28;20077;-52
2021/10/11 05:09:32;;;;;;;16.52;8.88;;;;;;;0.98;100.00;95895.31;5034098;28;20503;-52
2021/10/11 05:11:58;;;;;;;37.63;9.68;;;;;;;0.99;100.00;95899.59;5034018;28;20033;-55
2021/10/11 05:14:26;;;;;;;35.00;9.38;;;;;;;1.05;100.00;95896.19;5016277;28;20028;-56
2021/10/11 05:16:53;;;;;;;25.20;8.27;;;;;;;1.13;100.00;95888.19;5030893;28;20030;-57
2021/10/11 05:19:25;;;;;;;48.42;9.50;;;;;;;1.15;100.00;95893.28;5013956;28;20029;-54
2021/10/11 05:21:52;;;;;;;43.15;9.38;;;;;;;1.17;100.00;95886.78;5000868;28;20056;-56
2021/10/11 05:24:17;;;;;;;40.95;9.55;;;;;;;1.20;100.00;95884.81;5010522;28;20017;-59
2021/10/11 05:26:43;;;;;;;25.25;8.68;;;;;;;1.17;100.00;95878.06;4989535;28;20026;-55
2021/10/11 05:29:08;;;;;;;12.13;8.13;;;;;;;1.12;100.00;95878.63;5008482;28;20064;-57
2021/10/11 05:31:34;;;;;;;14.43;8.30;;;;;;;1.06;100.00;95874.09;5011705;28;20088;-55
2021/10/11 05:33:59;;;;;;;26.33;8.93;;;;;;;1.01;100.00;95870.38;5007306;28;20075;-52
2021/10/11 05:36:25;;;;;;;14.40;8.68;;;;;;;0.94;100.00;95877.41;4980387;28;20535;-58
2021/10/11 05:38:51;;;;;;;50.92;9.73;;;;;;;0.83;100.00;95881.34;4988531;28;20026;-54
2021/10/11 05:41:16;;;;;;;19.35;8.15;;;;;;;0.74;100.00;95885.06;5014077;28;20034;-56
2021/10/11 05:43:42;;;;;;;22.27;8.13;;;;;;;0.67;100.00;95885.00;4990843;28;20045;-55
2021/10/11 05:46:07;;;;;;;18.70;9.00;;;;;;;0.65;100.00;95875.63;5004843;28;20022;-53
2021/10/11 05:48:39;;;;;;;18.80;8.52;;;;;;;0.64;100.00;95879.25;4996652;28;20514;-56
2021/10/11 05:51:04;;;;;;;15.77;7.57;;;;;;;0.61;100.00;95875.19;5008906;28;20029;-60
2021/10/11 05:53:30;;;;;;;16.95;7.07;;;;;;;0.60;100.00;95876.19;5023507;28;20041;-57
2021/10/11 05:55:55;;;;;;;12.20;8.30;;;;;;;0.60;100.00;95872.72;4955762;28;20125;-58
2021/10/11 05:58:20;;;;;;;31.55;8.85;;;;;;;0.62;100.00;95876.00;5011443;28;20025;-55
2021/10/11 06:00:46;;;;;;;22.83;7.97;;;;;;;0.66;100.00;95869.38;5008002;28;20029;-54
2021/10/11 06:03:11;;;;;;;22.85;9.10;;;;;;;0.70;100.00;95870.63;4995135;28;20025;-58
2021/10/11 06:05:37;;;;;;;28.60;9.10;;;;;;;0.75;100.00;95876.97;5015535;28;20034;-53
2021/10/11 06:08:02;;;;;;;89.28;9.60;;;;;;;0.78;100.00;95871.34;4994479;28;20033;-59
2021/10/11 06:10:28;;;;;;;11.82;7.82;;;;;;;0.84;100.00;95870.59;4996574;28;20025;-59
2021/10/11 06:12:53;;;;;;;12.00;7.95;;;;;;;0.89;100.00;95879.78;5010664;28;20034;-60
2021/10/11 06:15:19;;;;;;;22.30;8.85;;;;;;;0.93;100.00;95875.78;5018660;28;20110;-56
2021/10/11 06:17:44;;;;;;;45.92;9.93;;;;;;;0.97;100.00;95877.03;5015392;28;20079;-58
2021/10/11 06:20:10;;;;;;;26.23;8.23;;;;;;;1.01;100.00;95876.47;5022141;28;20048;-56
2021/10/11 06:22:36;;;;;;;53.13;9.38;;;;;;;1.03;100.00;95873.66;5008293;28;20105;-60
2021/10/11 06:25:03;;;;;;;56.45;9.57;;;;;;;1.06;100.00;95863.53;4996085;28;20533;-60
2021/10/11 06:27:29;;;;;;;39.70;8.75;;;;;;;1.09;100.00;95857.09;5021631;28;20037;-58
2021/10/11 06:29:57;;;;;;;66.18;9.20;;;;;;;1.10;100.00;95843.72;5009351;28;20110;-55
2021/10/11 06:32:22;;;;;;;46.58;9.70;;;;;;;1.13;100.00;95840.69;4996504;28;20387;-55
2021/10/11 06:34:48;;;;;;;107.45;9.88;;;;;;;1.12;100.00;95836.41;5012327;28;20024;-57
2021/10/11 06:37:13;;;;;;;53.40;8.75;;;;;;;1.12;100.00;95839.06;4988512;28;20040;-54
2021/10/11 06:39:38;;;;;;;83.32;8.82;;;;;;;1.10;100.00;95846.34;4996636;28;20033;-51
2021/10/11 06:42:04;;;;;;;83.07;9.20;;;;;;;1.08;100.00;95847.53;4984239;28;20382;-52
2021/10/11 06:44:31;;;;;;;59.78;8.15;;;;;;;1.07;100.00;95856.44;4996076;28;20407;-55
2021/10/11 06:46:56;;;;;;;31.63;7.72;;;;;;;1.08;100.00;95856.25;5012693;28;20022;-56
2021/10/11 06:49:21;;;;;;;34.70;8.57;;;;;;;1.09;100.00;95872.94;4991942;28;20022;-57
2021/10/11 06:51:46;;;;;;;41.63;8.20;;;;;;;1.09;100.00;95881.66;5004523;28;20025;-55
2021/10/11 06:54:12;;;;;;;17.85;8.80;;;;;;;1.15;100.00;95883.53;5010175;28;20037;-58
2021/10/11 06:56:37;;;;;;;43.20;9.38;;;;;;;1.23;100.00;95892.34;5011287;28;20057;-59
2021/10/11 06:59:02;;;;;;;25.70;9.45;;;;;;;1.31;100.00;95884.31;5011595;28;20037;-59
2021/10/11 07:01:28;;;;;;;36.60;10.93;;;;;;;1.44;100.00;95898.47;5007908;28;20034;-58
2021/10/11 07:03:54;;;;;;;20.50;10.63;;;;;;;1.61;100.00;95900.84;5011180;28;20492;-57
2021/10/11 07:06:21;;;;;;;14.60;10.02;;;;;;;1.74;100.00;95904.44;5008053;28;20069;-59
2021/10/11 07:08:46;;;;;;;15.35;9.45;;;;;;;1.92;100.00;95906.59;5030952;28;20100;-59
2021/10/11 07:11:12;;;;;;;15.82;9.23;;;;;;;2.10;100.00;95911.44;5013577;28;20555;-58
2021/10/11 07:13:40;;;;;;;16.55;10.32;;;;;;;2.30;100.00;95909.75;5030378;28;20024;-53
2021/10/11 07:16:06;;;;;;;22.35;10.90;;;;;;;2.48;100.00;95911.88;5030977;28;20120;-55
2021/10/11 07:18:33;;;;;;;21.00;11.05;;;;;;;2.59;100.00;95906.03;5031397;28;20412;-53
2021/10/11 07:20:59;;;;;;;22.13;11.93;;;;;;;2.67;100.00;95918.31;5014148;28;20021;-55
2021/10/11 07:23:24;;;;;;;19.60;12.40;;;;;;;2.71;100.00;95916.06;5005153;28;20069;-58
2021/10/11 07:25:50;;;;;;;28.98;11.52;;;;;;;2.73;100.00;95917.53;5008859;28;20063;-55
2021/10/11 07:28:15;;;;;;;26.77;12.07;;;;;;;2.75;100.00;95917.34;5022837;28;20106;-58
2021/10/11 07:30:40;;;;;;;20.63;11.68;;;;;;;2.80;100.00;95910.44;4994132;28;20021;-56
2021/10/11 07:33:07;;;;;;;19.63;11.80;;;;;;;2.86;100.00;95907.03;5030908;28;20022;-55
2021/10/11 07:35:33;;;;;;;19.83;11.07;;;;;;;2.96;100.00;95911.13;5013793;28;20032;-58
2021/10/11 07:37:59;;;;;;;20.50;11.68;;;;;;;3.07;100.00;95911.38;4997054;28;20372;-53
2021/10/11 07:40:24;;;;;;;21.13;12.48;;;;;;;3.19;100.00;95915.09;5013551;28;20029;-56
2021/10/11 07:42:50;;;;;;;20.52;12.25;;;;;;;3.36;100.00;95914.72;5013993;28;20488;-56
2021/10/11 07:45:18;;;;;;;21.27;11.98;;;;;;;3.47;100.00;95917.63;5013474;28;20472;-52
2021/10/11 07:47:44;;;;;;;20.23;12.32;;;;;;;3.54;100.00;95903.56;5030690;28;20036;-55
2021/10/11 07:50:10;;;;;;;21.90;11.70;;;;;;;3.51;100.00;95896.84;4983770;28;20516;-58
2021/10/11 07:52:35;;;;;;;20.55;11.90;;;;;;;3.45;100.00;95903.75;4987493;28;20025;-54
2021/10/11 07:55:01;;;;;;;18.80;11.93;;;;;;;3.41;100.00;95894.59;5034891;28;20029;-54
2021/10/11 07:57:29;;;;;;;20.88;11.98;;;;;;;3.63;100.00;95883.84;5016661;28;20017;-55
2021/10/11 07:59:54;;;;;;;17.65;11.52;;;;;;;4.09;100.00;95878.53;5034690;28;20025;-57
2021/10/11 08:02:22;;;;;;;22.83;13.15;;;;;;;4.51;100.00;95882.56;5016126;28;20038;-57
2021/10/11 08:04:47;;;;;;;24.92;13.40;;;;;;;4.72;100.00;95886.00;5014882;28;20108;-53
2021/10/11 08:07:12;;;;;;;24.17;13.82;;;;;;;4.73;100.00;95888.44;5014250;28;20630;-53
2021/10/11 08:09:38;;;;;;;23.10;13.88;;;;;;;4.60;100.00;95891.94;5014516;28;20036;-52
2021/10/11 08:12:03;;;;;;;22.83;13.27;;;;;;;4.56;100.00;95887.28;5014721;28;20018;-58
2021/10/11 08:14:31;;;;;;;20.85;12.93;;;;;;;4.58;100.00;95883.38;5014715;28;20112;-56
2021/10/11 08:16:56;;;;;;;21.05;13.23;;;;;;;4.55;100.00;95888.28;5015199;28;20021;-58
2021/10/11 08:19:24;;;;;;;22.65;13.27;;;;;;;4.53;100.00;95888.47;5034326;28;20022;-58
2021/10/11 08:21:49;;;;;;;21.38;13.10;;;;;;;4.56;100.00;95895.25;5034173;28;20472;-58
2021/10/11 08:24:16;;;;;;;20.80;12.35;;;;;;;4.68;100.00;95888.28;5034171;28;20109;-59
2021/10/11 08:26:42;;;;;;;20.13;12.00;;;;;;;4.93;100.00;95877.78;4997158;28;20148;-60
2021/10/11 08:29:09;;;;;;;19.23;12.32;;;;;;;5.07;100.00;95881.19;5012537;28;20066;-58
2021/10/11 08:31:35;;;;;;;24.80;12.02;;;;;;;5.01;100.00;95888.16;5016285;28;20053;-58
2021/10/11 08:34:03;;;;;;;16.85;10.70;;;;;;;4.85;100.00;95899.22;5015841;28;20149;-59
2021/10/11 08:36:28;;;;;;;15.65;9.35;;;;;;;4.82;100.00;95899.66;5012884;28;20021;-59
2021/10/11 08:38:56;;;;;;;15.10;8.88;;;;;;;4.71;100.00;95909.06;4992881;28;20392;-58
2021/10/11 08:41:22;;;;;;;14.73;10.00;;;;;;;4.78;100.00;95898.44;4980562;28;20698;-58
2021/10/11 08:43:47;;;;;;;14.15;9.05;;;;;;;4.84;100.00;95903.72;4994864;28;20025;-56
2021/10/11 08:46:13;;;;;;;15.52;10.25;;;;;;;4.94;100.00;95913.91;5013925;28;20022;-59
2021/10/11 08:48:40;;;;;;;14.93;10.10;;;;;;;5.09;100.00;95908.34;4994894;28;20093;-58
2021/10/11 08:51:07;;;;;;;17.55;10.90;;;;;;;5.17;100.00;95908.09;4979411;28;20452;-58
2021/10/11 08:53:33;;;;;;;17.98;10.05;;;;;;;5.21;100.00;95912.00;5013264;28;20033;-59
2021/10/11 08:55:59;;;;;;;15.52;10.05;;;;;;;5.32;100.00;95913.13;4991305;28;20022;-55
2021/10/11 08:58:25;;;;;;;17.33;11.10;;;;;;;5.46;100.00;95918.19;4995041;28;20030;-57
2021/10/11 09:00:51;;;;;;;15.52;10.57;;;;;;;5.43;100.00;95918.63;4995803;28;20083;-58
2021/10/11 09:03:18;;;;;;;16.92;10.30;;;;;;;5.48;100.00;95920.63;5013642;28;20025;-58
2021/10/11 09:05:46;;;;;;;17.02;10.52;;;;;;;5.50;100.00;95915.91;4975783;28;20042;-62
2021/10/11 09:08:15;;;;;;;16.05;9.95;;;;;;;5.50;100.00;95907.94;4993796;28;20033;-60
2021/10/11 09:10:54;;;;;;;15.77;9.95;;;;;;;5.49;100.00;95903.66;4994360;28;20026;-59
2021/10/11 09:13:28;;;;;;;16.48;9.65;;;;;;;5.49;100.00;95911.63;5011324;28;20033;-55
2021/10/11 09:16:40;;;;;;;15.15;9.60;;;;;;;5.52;100.00;95912.00;4991160;28;20131;-55
2021/10/11 09:19:19;;;;;;;13.77;9.18;;;;;;;5.67;100.00;95906.44;5000208;28;20080;-60
2021/10/11 09:21:45;;;;;;;17.17;10.05;;;;;;;5.93;100.00;95908.13;5013030;28;20499;-57
2021/10/11 09:24:12;;;;;;;16.80;10.13;;;;;;;6.41;100.00;95898.75;4992190;28;20026;-57
2021/10/11 09:26:43;;;;;;;14.77;9.13;;;;;;;6.84;100.00;95898.75;4992822;28;20025;-54
2021/10/11 09:29:09;;;;;;;15.75;10.23;;;;;;;7.19;100.00;95886.44;4995616;28;20030;-55
2021/10/11 09:31:42;;;;;;;15.07;10.00;;;;;;;7.62;100.00;95887.34;4979526;28;20029;-58
2021/10/11 09:34:08;;;;;;;14.95;9.23;;;;;;;7.78;100.00;95887.50;5010110;28;20052;-55
2021/10/11 09:36:34;;;;;;;14.45;9.43;;;;;;;8.04;100.00;95880.97;5014558;28;20052;-54
2021/10/11 09:39:01;;;;;;;12.55;8.35;;;;;;;8.12;100.00;95880.59;5032763;28;20033;-57
2021/10/11 09:41:27;;;;;;;16.15;10.38;;;;;;;8.55;100.00;95866.16;5013767;28;20035;-58
2021/10/11 09:43:52;;;;;;;12.40;8.40;;;;;;;9.07;100.00;95852.03;5004505;28;20088;-58
2021/10/11 09:46:23;;;;;;;13.75;9.10;;;;;;;9.60;100.00;95838.38;4987694;28;20381;-58
2021/10/11 09:48:50;;;;;;;12.65;8.65;;;;;;;10.23;100.00;95823.94;4991456;28;20569;-52
2021/10/11 09:51:16;;;;;;;13.23;8.82;;;;;;;10.56;100.00;95815.06;4992831;28;20608;-57
2021/10/11 09:53:43;;;;;;;13.95;8.63;;;;;;;10.64;100.00;95798.56;4990302;28;20053;-56
2021/10/11 09:56:09;;;;;;;15.82;9.02;;;;;;;10.67;100.00;95790.03;4989495;28;20022;-57
2021/10/11 09:58:34;;;;;;;14.32;9.05;;;;;;;10.96;100.00;95766.56;5004593;28;20049;-57
2021/10/11 10:00:59;;;;;;;13.13;9.00;;;;;;;11.06;100.00;95735.53;4994385;28;20398;-53
2021/10/11 10:03:30;;;;;;;14.52;8.38;;;;;;;11.36;100.00;95701.00;4998610;28;20079;-58
2021/10/11 10:05:56;;;;;;;13.43;8.27;;;;;;;11.66;100.00;95660.19;5000237;28;20049;-56
2021/10/11 10:08:22;;;;;;;14.27;9.23;;;;;;;11.96;100.00;95605.13;4974939;28;20022;-55
2021/10/11 10:10:52;;;;;;;12.38;8.65;;;;;;;12.07;100.00;95528.94;4993589;28;20104;-52
2021/10/11 10:13:19;;;;;;;13.55;8.75;;;;;;;12.11;100.00;95463.69;4989928;28;20040;-55
2021/10/11 10:15:46;;;;;;;13.35;9.02;;;;;;;12.02;100.00;95422.31;4999605;28;20058;-53
2021/10/11 10:18:14;;;;;;;15.68;8.95;;;;;;;12.09;100.00;95428.25;5010097;28;20025;-59
2021/10/11 10:20:56;;;;;;;14.25;8.93;;;;;;;11.95;100.00;95435.22;5007235;28;20024;-58
2021/10/11 10:23:35;;;;;;;11.00;8.02;;;;;;;11.61;100.00;95461.59;4998854;28;20025;-58
2021/10/11 10:26:03;;;;;;;12.68;8.82;;;;;;;11.79;100.00;95468.41;4992882;28;20037;-58
2021/10/11 10:29:18;;;;;;;12.77;8.07;;;;;;;12.10;100.00;95491.63;5008332;28;20029;-58
2021/10/11 10:31:44;;;;;;;13.65;8.77;;;;;;;12.33;100.00;95511.00;4952096;28;20065;-60
2021/10/11 10:34:28;;;;;;;13.30;8.48;;;;;;;12.43;100.00;95530.66;4981852;28;20037;-57
2021/10/11 10:37:05;;;;;;;12.52;8.90;;;;;;;12.53;100.00;95540.63;5001050;28;20530;-54
2021/10/11 10:39:41;;;;;;;11.38;7.85;;;;;;;12.60;100.00;95565.38;5009250;28;20476;-58
2021/10/11 10:42:08;;;;;;;11.15;7.63;;;;;;;12.74;100.00;95603.28;5007967;28;20484;-58
2021/10/11 10:44:43;;;;;;;12.32;8.48;;;;;;;12.58;100.00;95626.59;4997661;28;20031;-57
2021/10/11 10:47:08;;;;;;;11.27;8.02;;;;;;;12.45;100.00;95646.72;5031341;28;20025;-57
2021/10/11 10:49:36;;;;;;;11.73;7.97;;;;;;;12.38;100.00;95654.22;5031692;28;20108;-51
2021/10/11 10:52:10;;;;;;;13.60;8.80;;;;;;;12.47;100.00;95674.13;4983098;28;20033;-53
2021/10/11 10:54:42;;;;;;;14.00;8.52;;;;;;;12.48;100.00;95697.25;5003661;28;20064;-54
2021/10/11 10:57:10;;;;;;;12.32;8.55;;;;;;;12.42;100.00;95725.16;5029912;28;20079;-51
2021/10/11 10:59:37;;;;;;;13.50;8.38;;;;;;;12.75;100.00;95731.22;5031513;28;20026;-55
2021/10/11 11:02:07;;;;;;;12.15;7.93;;;;;;;12.94;100.00;95748.53;5031566;28;20524;-60
2021/10/11 11:04:34;;;;;;;12.80;8.38;;;;;;;13.16;100.00;95774.41;4979627;28;20030;-58
2021/10/11 11:07:06;;;;;;;15.25;8.75;;;;;;;13.24;100.00;95793.59;4992531;28;20046;-59
2021/10/11 11:09:43;;;;;;;10.70;7.80;;;;;;;13.43;100.00;95833.44;5011198;28;20033;-61
2021/10/11 11:12:10;;;;;;;15.38;8.48;;;;;;;13.47;100.00;95856.91;4987577;28;20441;-60
2021/10/11 11:14:36;;;;;;;11.68;8.00;;;;;;;13.46;100.00;95874.13;5001395;28;20157;-57
2021/10/11 11:17:05;;;;;;;11.20;8.15;;;;;;;13.53;100.00;95887.31;4993939;28;20477;-58
2021/10/11 11:19:43;;;;;;;13.07;8.63;;;;;;;13.84;100.00;95904.38;4992091;28;20473;-62
2021/10/11 11:22:14;;;;;;;13.20;8.85;;;;;;;13.98;100.00;95929.72;4971787;28;20236;-61